Terminal Aerodrome Forecast
Issued by NWS

Home | Current Version | Previous Version | Text Only | Print | Product List | Glossary Off
Versions: 1 2 3 4 5 6 7 8 9 10 11 12 13 14 15 16 17 18 19 20 21 22 23 24 25 26 27 28 29 30 31 32 33 34 35 36

000
FTUS43 KLOT 191559 AAB
TAFORD
TAF AMD
KORD 191559Z 1916/2018 09014KT P6SM SCT040 BKN250
     FM192100 05015KT 6SM BR VCSH BKN040 OVC050
     FM192300 03012KT 5SM -SHRA BR OVC015
     FM200300 36006KT 6SM -SHRA OVC008
     FM200600 29008KT 6SM BR VCSH BKN008 OVC015
     FM201200 27010KT 6SM -SHRA BR BKN008 OVC015
     FM201500 28012G20KT P6SM VCSH SCT010 BKN030=

USA.gov is the U.S. government's official web portal to all federal, state and local government web resources and services.